• Join FlightAware (Why Join?)
  • Login
  • US Flag 
09:37AM EDT


 

Airport Tracker/Info


-or-


 

Live Flight TrackerFlight Track Log ✈ AAL2360 ✈ 27-Apr-2013 ✈ KDFW - KORD

Flight Track Log - Related Links

Times and Time Zones

All times are in EDT time to prevent confusion due to time zone crossing. See the AAL2360 flight status page for this flight to view local times or setup timezone preferences in your user account.

Time Position Orientation Groundspeed Altitude Reporting Facility
EDT Latitude Longitude Course Direction KTS MPH feet Rate Location/Type
03:32PM 32.9333 -97.0333 357° North 183 211 2,000  Level Dallas / Fort Worth TRACON
03:33PM 32.9833 -97.0333 360° North 237 273 4,300 2,580 Climbing Dallas / Fort Worth TRACON
03:34PM 32.7601 -96.8495 77° East  Level FlightAware Approximate
03:35PM 32.8581 -96.8000 North  Level FlightAware Approximate
03:35PM 33.1208 -96.9769 19° North 266 306 9,400  Level Fort Worth Center
03:36PM 32.9791 -96.8000 North  Level FlightAware Approximate
03:36PM 33.2019 -96.9417 20° North 300 345 11,400  Level Fort Worth Center
03:37PM 33.1001 -96.8024 357° North  Level FlightAware Approximate
03:37PM 33.2958 -96.8964 22° Northeast 337 388 13,300  Level Fort Worth Center
03:38PM 33.2209 -96.8110 357° North  Level FlightAware Approximate
03:38PM 33.4000 -96.8486 21° North 381 438 16,000  Level Fort Worth Center
03:39PM 33.5039 -96.7931 24° Northeast 398 458 18,300 2,100 Climbing Fort Worth Center
03:40PM 33.6081 -96.7250 29° Northeast 406 467 20,200 1,800 Climbing Fort Worth Center
03:41PM 33.7161 -96.6544 29° Northeast 420 483 22,000 1,500 Climbing Fort Worth Center
03:42PM 33.8056 -96.5961 28° Northeast 441 507 23,300 1,680 Climbing Fort Worth Center
03:43PM 33.9425 -96.5047 29° Northeast 452 520 25,400 1,680 Climbing Fort Worth Center
03:44PM 34.0503 -96.4083 37° Northeast 476 548 26,700 1,500 Climbing Fort Worth Center
03:45PM 34.1539 -96.3117 38° Northeast 483 556 28,500 1,740 Climbing Fort Worth Center
03:46PM 34.2636 -96.2147 36° Northeast 478 550 30,200 1,560 Climbing Fort Worth Center
03:47PM 34.3711 -96.1178 37° Northeast 478 550 31,700 1,320 Climbing Fort Worth Center
03:48PM 34.4786 -96.0203 37° Northeast 478 550 32,900 600 Climbing Fort Worth Center
03:49PM 34.5903 -95.9253 35° Northeast 478 550 33,000  Climbing Fort Worth Center
03:50PM 34.6956 -95.8300 37° Northeast 478 550 33,000  Level Fort Worth Center
03:52PM 34.8792 -95.6656 36° Northeast 488 562 33,000  Level Kansas City Center
03:52PM 34.9208 -95.6350 31° Northeast 495 570 33,000  Level Memphis Center
03:53PM 35.0292 -95.5353 37° Northeast 495 570 33,000  Level Memphis Center
03:54PM 35.1375 -95.4378 36° Northeast 489 563 33,000  Level Memphis Center
03:55PM 35.2436 -95.3400 37° Northeast 484 557 33,000  Level Memphis Center
03:56PM 35.3519 -95.2422 36° Northeast 484 557 33,000  Level Memphis Center
03:57PM 35.4578 -95.1439 37° Northeast 478 550 33,000  Level Memphis Center
03:58PM 35.5617 -95.0453 38° Northeast 478 550 33,000  Level Memphis Center
03:59PM 35.6697 -94.9464 37° Northeast 478 550 33,000  Level Memphis Center
04:00PM 35.7733 -94.8475 38° Northeast 478 550 33,000  Level Memphis Center
04:01PM 35.8789 -94.7506 37° Northeast 478 550 33,000  Level Memphis Center
04:02PM 35.9847 -94.6511 37° Northeast 478 550 33,000  Level Memphis Center
04:03PM 36.0881 -94.5539 37° Northeast 478 550 33,000  Level Memphis Center
04:05PM 36.2775 -94.3725 38° Northeast 469 540 33,000  Level Kansas City Center
04:06PM 36.4028 -94.2539 37° Northeast 471 542 33,000  Level Kansas City Center
04:07PM 36.5058 -94.1558 37° Northeast 468 539 33,000  Level Kansas City Center
04:08PM 36.6106 -94.0578 37° Northeast 470 541 33,000  Level Kansas City Center
04:09PM 36.7131 -93.9578 38° Northeast 469 540 33,000  Level Kansas City Center
04:10PM 36.8178 -93.8600 37° Northeast 469 540 33,000  Level Kansas City Center
04:11PM 36.9261 -93.7528 38° Northeast 467 537 33,000  Level Kansas City Center
04:12PM 37.0292 -93.6533 38° Northeast 465 535 33,000  Level Kansas City Center
04:13PM 37.1314 -93.5531 38° Northeast 465 535 33,000  Level Kansas City Center
04:15PM 37.2339 -93.4533 38° Northeast 465 535 33,000  Level Kansas City Center
04:16PM 37.3389 -93.3544 37° Northeast 467 537 33,000  Level Kansas City Center
04:17PM 37.4614 -93.2372 37° Northeast 461 531 33,000  Level Kansas City Center
04:18PM 37.5656 -93.1397 37° Northeast 462 532 33,000  Level Kansas City Center
04:19PM 37.6708 -93.0458 35° Northeast 462 532 33,000  Level Kansas City Center
04:20PM 37.7725 -92.9483 37° Northeast 457 526 33,000  Level Kansas City Center
04:21PM 37.8758 -92.8525 36° Northeast 456 525 33,000  Level Kansas City Center
04:22PM 37.9789 -92.7572 36° Northeast 454 522 33,000  Level Kansas City Center
04:23PM 38.0858 -92.6550 37° Northeast 454 522 33,000  Level Kansas City Center
04:24PM 38.1875 -92.5592 37° Northeast 455 524 33,000  Level Kansas City Center
04:25PM 38.2889 -92.4661 36° Northeast 453 521 33,000 60 Level Kansas City Center
04:26PM 38.3906 -92.3697 37° Northeast 451 519 33,200 300 Climbing Kansas City Center
04:27PM 38.4900 -92.2750 37° Northeast 448 516 33,700 360 Climbing Kansas City Center
04:28PM 38.6131 -92.1564 37° Northeast 452 520 34,000 120 Climbing Kansas City Center
04:29PM 38.7178 -92.0553 37° Northeast 461 531 34,000 240 Level Kansas City Center
04:30PM 38.8211 -91.9531 38° Northeast 465 535 34,600 480 Climbing Kansas City Center
04:31PM 38.9253 -91.8531 37° Northeast 466 536 35,000 180 Climbing Kansas City Center
04:32PM 39.0281 -91.7522 37° Northeast 464 534 35,000  Level Kansas City Center
04:33PM 39.1286 -91.6556 37° Northeast 466 536 35,000  Level Kansas City Center
04:34PM 39.2333 -91.5533 37° Northeast 469 540 35,000  Level Kansas City Center
04:35PM 39.3394 -91.4492 37° Northeast 475 547 35,000  Level Kansas City Center
04:36PM 39.4656 -91.3244 37° Northeast 476 548 35,000  Level Kansas City Center
04:37PM 39.5703 -91.2208 37° Northeast 474 545 35,000  Level Kansas City Center
04:38PM 39.6728 -91.1189 37° Northeast 469 540 35,000  Level Kansas City Center
04:39PM 39.7758 -91.0144 38° Northeast 465 535 35,000  Level Kansas City Center
04:40PM 39.8833 -90.9064 38° Northeast 464 534 35,000 -120 Level Kansas City Center
04:41PM 39.9856 -90.8047 37° Northeast 463 533 34,800 -600 Descending Kansas City Center
04:42PM 40.0894 -90.6994 38° Northeast 468 539 33,800 -960 Descending Kansas City Center
04:43PM 40.1639 -90.6225 38° Northeast 477 549 33,100 -480 Descending Chicago Center
04:44PM 40.2786 -90.5058 38° Northeast 480 552 33,000 -60 Descending Chicago Center
04:45PM 40.3853 -90.3978 38° Northeast 483 556 33,000  Level Chicago Center
04:46PM 40.4900 -90.2900 38° Northeast 479 551 33,000  Level Chicago Center
04:47PM 40.6133 -90.1611 38° Northeast 475 547 33,000 -360 Level Chicago Center
04:48PM 40.7197 -90.0536 37° Northeast 481 554 32,300 -1,320 Descending Chicago Center
04:49PM 40.8261 -89.9428 38° Northeast 486 559 30,300 -1,920 Descending Chicago Center
04:50PM 40.9283 -89.8347 39° Northeast 475 547 28,400 -2,280 Descending Chicago Center
04:51PM 41.0414 -89.7156 38° Northeast 473 544 25,700 -2,460 Descending Chicago Center
04:52PM 41.1417 -89.6111 38° Northeast 459 528 23,400 -2,340 Descending Chicago Center
04:53PM 41.2058 -89.4794 57° Northeast 426 490 20,900 -2,340 Descending Chicago Center
04:54PM 41.2606 -89.3444 62° Northeast 416 479 18,600 -2,220 Descending Chicago Center
04:55PM 41.3117 -89.2156 62° Northeast 398 458 16,400 -2,220 Descending Chicago Center
04:56PM 41.3614 -89.0883 62° Northeast 370 426 14,100 -1,920 Descending Chicago Center
04:58PM 41.4092 -88.9678 62° Northeast 369 425 12,500 -1,380 Descending Chicago Center
04:59PM 41.4569 -88.8503 61° Northeast 364 419 11,300 -780 Descending Chicago Center
05:00PM 41.5094 -88.7161 62° Northeast 334 384 11,000 -120 Descending Chicago Center
05:01PM 41.5478 -88.6219 61° Northeast 294 338 11,100 -60 Climbing Chicago Center
05:02PM 41.5847 -88.5269 63° Northeast 291 335 10,900 -780 Descending Chicago Center
05:03PM 41.6261 -88.4353 59° Northeast 288 331 9,600 -1,320 Descending Chicago Center
05:04PM 41.6894 -88.3800 33° Northeast 283 326 8,300 -960 Descending Chicago Center
05:05PM 41.7686 -88.3550 13° North 291 335 7,700 -780 Descending Chicago Center
05:06PM 41.8458 -88.3297 14° North 287 330 6,700 -1,260 Descending Chicago Center
05:07PM 41.9319 -88.3019 13° North 268 308 5,200 -1,140 Descending Chicago Center
05:08PM 41.9628 -88.2264 61° Northeast 246 283 4,400 -600 Descending Chicago Center
05:09PM 41.9681 -88.1564 84° East 212 244 4,000 -420 Descending Chicago Center